• Join FlightAware (Why Join?)
  • Login
  • US Flag 
07:21AM EDT


 

Airport Tracker/Info


-or-


 

Live Flight TrackerFlight Track Log ✈ LBQ792 ✈ 30-Apr-2013 ✈ KAGC - KIAD

Flight Track Log - Related Links

Times and Time Zones

All times are in EDT time to prevent confusion due to time zone crossing. See the LBQ792 flight status page for this flight to view local times or setup timezone preferences in your user account.

Time Position Orientation Groundspeed Altitude Reporting Facility
EDT Latitude Longitude Course Direction KTS MPH feet Rate Location/Type
01:02AM 39.8003 -78.9458 126° Southeast 255 293 15,100  Level Washington Center
01:03AM 39.7528 -78.8600 126° Southeast 276 318 15,100 -60 Level Washington Center
01:04AM 39.7111 -78.7825 125° Southeast 276 318 15,000 -60 Descending Washington Center
01:05AM 39.6672 -78.7053 126° Southeast 276 318 15,000  Level Washington Center
01:06AM 39.6233 -78.6306 127° Southeast 271 312 15,000  Level Washington Center
01:07AM 40.1423 -79.5627 126° Southeast  Level FlightAware Approximate
01:07AM 39.5814 -78.5561 126° Southeast 266 306 15,100  Level Washington Center
01:08AM 39.5394 -78.4817 126° Southeast 260 299 14,400 -900 Descending Washington Center
01:09AM 39.4956 -78.4044 126° Southeast 260 299 13,300 -1,140 Descending Washington Center
01:10AM 39.4514 -78.3250 126° Southeast 260 299 12,200 -1,080 Descending Washington Center
01:11AM 39.4200 -78.2378 115° Southeast 260 299 11,200 -1,140 Descending Washington Center
01:12AM 39.3906 -78.1533 114° Southeast 260 299 10,000 -1,200 Descending Washington Center
01:13AM 39.3611 -78.0664 114° Southeast 260 299 8,900 -1,140 Descending Washington Center
01:14AM 39.3378 -77.9772 109° East 260 299 7,800 -1,140 Descending Washington Center
01:15AM 39.3103 -77.8958 114° Southeast 250 288 6,700 -1,140 Descending Washington Center
01:16AM 39.2764 -77.8169 119° Southeast 250 288 5,600 -960 Descending Washington Center
01:18AM 39.2167 -77.6667 117° Southeast 241 277 4,000 -840 Descending Potomac TRACON
01:19AM 39.1667 -77.6000 134° Southeast 235 270 3,200 -540 Descending Potomac TRACON
01:20AM 39.1167 -77.5500 142° Southeast 225 259 3,000 -300 Descending Potomac TRACON
01:21AM 39.0667 -77.5167 153° Southeast 217 250 2,700 -420 Descending Potomac TRACON
01:22AM 39.0333 -77.4833 142° Southeast 196 226 2,200 -900 Descending Potomac TRACON
01:23AM 38.9833 -77.4667 165° South 142 163 900 -1,320 Descending Potomac TRACON
01:25AM 38.9474 -77.4599 90° East  Level Estimated
01:32AM 38.9474 -77.4599 90° East  Level Estimated
01:33AM 38.9474 -77.4599 90° East  Level Estimated
01:34AM 38.9474 -77.4599 90° East  Level Estimated
01:35AM 38.9474 -77.4599 90° East  Level Estimated